63A weather

Lloyd R. Roundtree Seaplane Facility Seaplane Base
Petersburg, Alaska, United States

Public forecast

Using degrees Fahrenheit for public forecast. Weather courtesy of forecast.io.

Closest aviation weather report (METAR) to Lloyd R. Roundtree Seaplane Facility Seaplane Base

Closest report is Petersburg James A Johnson Airport, 0.8 nm (1.4 km) SE. Retrieved 2019/10/18 13:36 UTC (0 seconds ago):

PAPG 181336Z AUTO 32003KT 10SM -RA FEW003 BKN023 OVC038 06/06 A2927 RMK AO2 RAB01 P0002

Closest aviation forecast (TAF) to Lloyd R. Roundtree Seaplane Facility Seaplane Base

Closest forecast is Petersburg James A Johnson Airport, 0.8 nm (1.4 km) SE. Retrieved 2019/10/18 12:22 UTC (41 minutes ago):

TAF PAPG 181120Z 1812/1912 10004KT P6SM -SHRA SCT009 OVC030 FM181300 VRB04KT P6SM -SHRA SCT020 OVC030 FM181800 VRB04KT P6SM -SHRA SCT020 OVC040 FM190600 VRB02KT 2SM BR BCFG FEW003 SCT020 OVC050 AMD LTD TO CLD VIS AND WIND 1812/1815